Hanes, North Carolina
Current Conditions -  °F | °C
As of 8:54 AM on Friday 19 Dec 2014 (Local Time) from KINT Reporting Station
Clear Clear  
Wind Chill: 38°   Ceiling: Unl
Heat Index: 42°   Visibility: 10mi
Dew Point: 20°   Wind: 6mph
Humidity: 41%   Direction: 320°NW
Pressure: 30.17"   Gusts: NA
Location:  36.0595°N, 80.3192°W
Report Text: KINT 191354Z 32005KT 10SM CLR 06/M07 A3017 RMK AO2 SLP220 T00561067
Loading
Personal Weather Stations






























Interactive Weather Map New forecast layout! Learn more

10-Day Weather Forecast

Advertisements
Track Severe Weather on mobile